TimeEDT,TemperatureF,Dew PointF,Humidity,Sea Level PressureIn,VisibilityMPH,Wind Direction,Wind SpeedMPH,Gust SpeedMPH,PrecipitationIn,Events,Conditions,WindDirDegrees,DateUTC
12:52 AM,32.0,18.0,56,29.82,10.0,West,8.1,-,N/A,,Overcast,270,2013-03-24 04:52:00
1:52 AM,32.0,19.9,61,29.83,10.0,WNW,8.1,-,N/A,,Overcast,290,2013-03-24 05:52:00
2:52 AM,32.0,19.9,61,29.83,10.0,WNW,5.8,-,N/A,,Overcast,290,2013-03-24 06:52:00
3:52 AM,32.0,19.9,61,29.81,10.0,WNW,6.9,-,N/A,,Overcast,300,2013-03-24 07:52:00
4:52 AM,30.9,21.0,67,29.81,10.0,NW,3.5,-,N/A,,Overcast,310,2013-03-24 08:52:00
5:52 AM,28.9,19.9,69,29.81,10.0,West,4.6,-,N/A,,Mostly Cloudy,280,2013-03-24 09:52:00
6:52 AM,30.0,19.9,66,29.85,10.0,WNW,4.6,-,N/A,,Overcast,300,2013-03-24 10:52:00
7:52 AM,30.9,19.9,64,29.86,10.0,WNW,10.4,-,N/A,,Overcast,300,2013-03-24 11:52:00
8:52 AM,34.0,21.0,59,29.83,10.0,NNW,12.7,-,N/A,,Clear,330,2013-03-24 12:52:00
9:52 AM,36.0,19.9,52,29.84,10.0,NNW,16.1,21.9,N/A,,Clear,340,2013-03-24 13:52:00
10:52 AM,37.0,19.0,48,29.84,10.0,WNW,11.5,21.9,N/A,,Scattered Clouds,300,2013-03-24 14:52:00
11:52 AM,39.0,19.9,46,29.83,10.0,Variable,3.5,-,N/A,,Mostly Cloudy,0,2013-03-24 15:52:00
1:52 PM,41.0,19.9,43,29.80,10.0,North,9.2,18.4,N/A,,Mostly Cloudy,350,2013-03-24 17:52:00
2:52 PM,41.0,21.0,45,29.78,10.0,North,9.2,-,N/A,,Partly Cloudy,360,2013-03-24 18:52:00
3:52 PM,42.1,21.9,45,29.75,10.0,NNW,12.7,-,N/A,,Partly Cloudy,330,2013-03-24 19:52:00
4:52 PM,41.0,21.9,47,29.75,10.0,North,11.5,19.6,N/A,,Partly Cloudy,350,2013-03-24 20:52:00
5:52 PM,41.0,21.0,45,29.76,10.0,NNW,9.2,-,N/A,,Clear,340,2013-03-24 21:52:00
6:52 PM,39.0,21.9,50,29.77,10.0,NNW,5.8,-,N/A,,Clear,340,2013-03-24 22:52:00
7:52 PM,37.0,21.0,52,29.77,10.0,North,5.8,-,N/A,,Clear,360,2013-03-24 23:52:00
8:52 PM,34.0,21.0,59,29.78,10.0,NNE,5.8,-,N/A,,Clear,20,2013-03-25 00:52:00
9:52 PM,32.0,21.0,64,29.81,10.0,Calm,Calm,-,N/A,,Clear,0,2013-03-25 01:52:00
10:52 PM,28.0,23.0,81,29.80,10.0,Calm,Calm,-,N/A,,Scattered Clouds,0,2013-03-25 02:52:00
11:52 PM,28.9,23.0,78,29.79,10.0,Calm,Calm,-,N/A,,Clear,0,2013-03-25 03:52:00